sensor_id;sensor_type;location;lat;lon;timestamp;temperature;humidity
2314;DHT22;42279;51.388;7.000;2023-06-24T00:00:07;18.80;99.90
2314;DHT22;42279;51.388;7.000;2023-06-24T00:02:35;18.80;99.90
2314;DHT22;42279;51.388;7.000;2023-06-24T00:05:04;18.80;99.90
2314;DHT22;42279;51.388;7.000;2023-06-24T00:07:31;18.70;99.90
2314;DHT22;42279;51.388;7.000;2023-06-24T00:10:02;18.60;99.90
2314;DHT22;42279;51.388;7.000;2023-06-24T00:12:29;18.60;99.90
2314;DHT22;42279;51.388;7.000;2023-06-24T00:14:55;18.60;99.90
2314;DHT22;42279;51.388;7.000;2023-06-24T00:17:22;18.60;99.90
2314;DHT22;42279;51.388;7.000;2023-06-24T00:19:49;18.50;99.90
2314;DHT22;42279;51.388;7.000;2023-06-24T00:22:14;17.60;99.90
2314;DHT22;42279;51.388;7.000;2023-06-24T00:24:40;18.50;99.90
2314;DHT22;42279;51.388;7.000;2023-06-24T00:27:08;18.40;99.90
2314;DHT22;42279;51.388;7.000;2023-06-24T00:29:33;18.40;99.90
2314;DHT22;42279;51.388;7.000;2023-06-24T00:31:59;18.30;99.90
2314;DHT22;42279;51.388;7.000;2023-06-24T00:34:25;18.30;99.90
2314;DHT22;42279;51.388;7.000;2023-06-24T00:36:58;18.40;99.90
2314;DHT22;42279;51.388;7.000;2023-06-24T00:39:23;18.40;99.90
2314;DHT22;42279;51.388;7.000;2023-06-24T00:41:49;18.50;99.90
2314;DHT22;42279;51.388;7.000;2023-06-24T00:44:15;18.40;99.90
2314;DHT22;42279;51.388;7.000;2023-06-24T00:46:41;18.30;99.90
2314;DHT22;42279;51.388;7.000;2023-06-24T00:49:06;18.40;99.90
2314;DHT22;42279;51.388;7.000;2023-06-24T00:51:32;18.50;99.90
2314;DHT22;42279;51.388;7.000;2023-06-24T00:54:01;18.40;99.90
2314;DHT22;42279;51.388;7.000;2023-06-24T00:56:33;18.40;99.90
2314;DHT22;42279;51.388;7.000;2023-06-24T00:59:01;18.30;99.90
2314;DHT22;42279;51.388;7.000;2023-06-24T01:01:33;18.30;99.90
2314;DHT22;42279;51.388;7.000;2023-06-24T01:04:02;18.30;99.90
2314;DHT22;42279;51.388;7.000;2023-06-24T01:06:28;18.20;99.90
2314;DHT22;42279;51.388;7.000;2023-06-24T01:08:58;18.20;99.90
2314;DHT22;42279;51.388;7.000;2023-06-24T01:11:26;18.20;99.90
2314;DHT22;42279;51.388;7.000;2023-06-24T01:13:52;18.20;99.90
2314;DHT22;42279;51.388;7.000;2023-06-24T01:22:37;18.20;99.90
2314;DHT22;42279;51.388;7.000;2023-06-24T01:31:45;18.00;99.90
2314;DHT22;42279;51.388;7.000;2023-06-24T01:37:14;17.80;99.90
2314;DHT22;42279;51.388;7.000;2023-06-24T01:40:09;17.90;99.90
2314;DHT22;42279;51.388;7.000;2023-06-24T01:42:39;17.90;99.90
2314;DHT22;42279;51.388;7.000;2023-06-24T01:45:12;17.90;99.90
2314;DHT22;42279;51.388;7.000;2023-06-24T01:47:41;17.90;99.90
2314;DHT22;42279;51.388;7.000;2023-06-24T01:50:11;17.90;99.90
2314;DHT22;42279;51.388;7.000;2023-06-24T01:52:39;18.00;99.90
2314;DHT22;42279;51.388;7.000;2023-06-24T01:55:10;17.80;99.90
2314;DHT22;42279;51.388;7.000;2023-06-24T01:57:40;17.80;99.90
2314;DHT22;42279;51.388;7.000;2023-06-24T02:00:09;17.80;99.90
2314;DHT22;42279;51.388;7.000;2023-06-24T02:02:38;17.70;99.90
2314;DHT22;42279;51.388;7.000;2023-06-24T02:05:06;17.70;99.90
2314;DHT22;42279;51.388;7.000;2023-06-24T02:07:32;17.70;99.90
2314;DHT22;42279;51.388;7.000;2023-06-24T02:09:59;17.60;99.90
2314;DHT22;42279;51.388;7.000;2023-06-24T02:12:29;17.60;99.90
2314;DHT22;42279;51.388;7.000;2023-06-24T02:14:56;17.70;99.90
2314;DHT22;42279;51.388;7.000;2023-06-24T02:17:24;17.70;99.90
2314;DHT22;42279;51.388;7.000;2023-06-24T02:19:53;17.70;99.90
2314;DHT22;42279;51.388;7.000;2023-06-24T02:22:20;17.70;99.90
2314;DHT22;42279;51.388;7.000;2023-06-24T02:24:48;17.70;99.90
2314;DHT22;42279;51.388;7.000;2023-06-24T02:27:14;17.70;99.90
2314;DHT22;42279;51.388;7.000;2023-06-24T02:29:40;17.60;99.90
2314;DHT22;42279;51.388;7.000;2023-06-24T02:32:07;17.60;99.90
2314;DHT22;42279;51.388;7.000;2023-06-24T02:34:34;17.70;99.90
2314;DHT22;42279;51.388;7.000;2023-06-24T02:36:59;17.60;99.90
2314;DHT22;42279;51.388;7.000;2023-06-24T02:39:25;17.60;99.90
2314;DHT22;42279;51.388;7.000;2023-06-24T02:41:51;17.60;99.90
2314;DHT22;42279;51.388;7.000;2023-06-24T02:44:16;17.50;99.90
2314;DHT22;42279;51.388;7.000;2023-06-24T02:46:46;17.40;99.90
2314;DHT22;42279;51.388;7.000;2023-06-24T02:49:13;17.50;99.90
2314;DHT22;42279;51.388;7.000;2023-06-24T02:51:41;17.60;99.90
2314;DHT22;42279;51.388;7.000;2023-06-24T02:54:07;17.60;99.90
2314;DHT22;42279;51.388;7.000;2023-06-24T02:56:34;17.50;99.90
2314;DHT22;42279;51.388;7.000;2023-06-24T02:59:28;17.50;99.90
2314;DHT22;42279;51.388;7.000;2023-06-24T03:01:55;17.60;99.90
2314;DHT22;42279;51.388;7.000;2023-06-24T03:04:21;17.50;99.90
2314;DHT22;42279;51.388;7.000;2023-06-24T03:06:47;17.50;99.90
2314;DHT22;42279;51.388;7.000;2023-06-24T03:09:14;17.50;99.90
2314;DHT22;42279;51.388;7.000;2023-06-24T03:11:45;17.50;99.90
2314;DHT22;42279;51.388;7.000;2023-06-24T03:14:11;17.40;99.90
2314;DHT22;42279;51.388;7.000;2023-06-24T03:16:37;17.30;99.90
2314;DHT22;42279;51.388;7.000;2023-06-24T03:19:04;17.30;99.90
2314;DHT22;42279;51.388;7.000;2023-06-24T03:21:30;17.30;99.90
2314;DHT22;42279;51.388;7.000;2023-06-24T03:23:56;17.20;99.90
2314;DHT22;42279;51.388;7.000;2023-06-24T03:26:31;17.20;99.90
2314;DHT22;42279;51.388;7.000;2023-06-24T03:28:57;17.20;99.90
2314;DHT22;42279;51.388;7.000;2023-06-24T03:31:23;17.20;99.90
2314;DHT22;42279;51.388;7.000;2023-06-24T03:33:49;17.20;99.90
2314;DHT22;42279;51.388;7.000;2023-06-24T03:36:17;17.10;99.90
2314;DHT22;42279;51.388;7.000;2023-06-24T03:38:43;17.10;99.90
2314;DHT22;42279;51.388;7.000;2023-06-24T03:41:08;17.10;99.90
2314;DHT22;42279;51.388;7.000;2023-06-24T03:43:34;17.10;99.90
2314;DHT22;42279;51.388;7.000;2023-06-24T03:45:59;17.10;99.90
2314;DHT22;42279;51.388;7.000;2023-06-24T03:48:25;17.20;99.90
2314;DHT22;42279;51.388;7.000;2023-06-24T03:50:51;17.10;99.90
2314;DHT22;42279;51.388;7.000;2023-06-24T03:53:17;17.20;99.90
2314;DHT22;42279;51.388;7.000;2023-06-24T03:55:42;17.20;99.90
2314;DHT22;42279;51.388;7.000;2023-06-24T03:58:09;17.20;99.90
2314;DHT22;42279;51.388;7.000;2023-06-24T04:00:34;17.20;99.90
2314;DHT22;42279;51.388;7.000;2023-06-24T04:03:07;17.20;99.90
2314;DHT22;42279;51.388;7.000;2023-06-24T04:05:33;17.30;99.90
2314;DHT22;42279;51.388;7.000;2023-06-24T04:07:59;17.40;99.90
2314;DHT22;42279;51.388;7.000;2023-06-24T04:10:25;17.30;99.90
2314;DHT22;42279;51.388;7.000;2023-06-24T04:12:51;17.40;99.90
2314;DHT22;42279;51.388;7.000;2023-06-24T04:15:17;17.40;99.90
2314;DHT22;42279;51.388;7.000;2023-06-24T04:17:42;17.40;99.90
2314;DHT22;42279;51.388;7.000;2023-06-24T04:20:11;17.50;99.90
2314;DHT22;42279;51.388;7.000;2023-06-24T04:22:37;17.70;99.90
2314;DHT22;42279;51.388;7.000;2023-06-24T04:25:05;17.70;99.90
2314;DHT22;42279;51.388;7.000;2023-06-24T04:27:34;17.70;99.90
2314;DHT22;42279;51.388;7.000;2023-06-24T04:30:21;17.70;99.90
2314;DHT22;42279;51.388;7.000;2023-06-24T04:32:47;17.90;99.90
2314;DHT22;42279;51.388;7.000;2023-06-24T04:35:15;17.90;99.90
2314;DHT22;42279;51.388;7.000;2023-06-24T04:37:50;17.90;99.90
2314;DHT22;42279;51.388;7.000;2023-06-24T04:40:22;18.00;99.90
2314;DHT22;42279;51.388;7.000;2023-06-24T04:42:48;18.00;99.90
2314;DHT22;42279;51.388;7.000;2023-06-24T04:45:14;17.90;99.90
2314;DHT22;42279;51.388;7.000;2023-06-24T04:47:42;17.80;99.90
2314;DHT22;42279;51.388;7.000;2023-06-24T04:50:12;17.80;99.90
2314;DHT22;42279;51.388;7.000;2023-06-24T04:53:15;17.80;99.90
2314;DHT22;42279;51.388;7.000;2023-06-24T04:55:41;17.90;99.90
2314;DHT22;42279;51.388;7.000;2023-06-24T04:58:06;17.90;99.90
2314;DHT22;42279;51.388;7.000;2023-06-24T05:00:32;17.90;99.90
2314;DHT22;42279;51.388;7.000;2023-06-24T05:02:57;18.10;99.90
2314;DHT22;42279;51.388;7.000;2023-06-24T05:05:23;18.30;99.90
2314;DHT22;42279;51.388;7.000;2023-06-24T05:07:49;18.30;99.90
2314;DHT22;42279;51.388;7.000;2023-06-24T05:10:15;18.60;99.90
2314;DHT22;42279;51.388;7.000;2023-06-24T05:12:40;18.90;99.90
2314;DHT22;42279;51.388;7.000;2023-06-24T05:15:09;19.20;99.90
2314;DHT22;42279;51.388;7.000;2023-06-24T05:17:35;19.50;99.90
2314;DHT22;42279;51.388;7.000;2023-06-24T05:20:01;19.70;99.90
2314;DHT22;42279;51.388;7.000;2023-06-24T05:22:29;20.00;99.90
2314;DHT22;42279;51.388;7.000;2023-06-24T05:24:55;20.30;99.90
2314;DHT22;42279;51.388;7.000;2023-06-24T05:27:21;20.80;99.90
2314;DHT22;42279;51.388;7.000;2023-06-24T05:29:46;21.20;99.90
2314;DHT22;42279;51.388;7.000;2023-06-24T05:32:12;21.50;99.90
2314;DHT22;42279;51.388;7.000;2023-06-24T05:34:38;21.70;99.90
2314;DHT22;42279;51.388;7.000;2023-06-24T05:37:03;21.80;99.90
2314;DHT22;42279;51.388;7.000;2023-06-24T05:39:30;22.00;99.90
2314;DHT22;42279;51.388;7.000;2023-06-24T05:42:05;22.00;99.90
2314;DHT22;42279;51.388;7.000;2023-06-24T05:44:33;22.10;99.90
2314;DHT22;42279;51.388;7.000;2023-06-24T05:46:59;22.10;99.90
2314;DHT22;42279;51.388;7.000;2023-06-24T05:49:25;22.00;99.90
2314;DHT22;42279;51.388;7.000;2023-06-24T05:51:50;22.00;99.90
2314;DHT22;42279;51.388;7.000;2023-06-24T05:54:16;21.90;99.90
2314;DHT22;42279;51.388;7.000;2023-06-24T05:56:41;21.80;99.90
2314;DHT22;42279;51.388;7.000;2023-06-24T05:59:07;21.90;99.90
2314;DHT22;42279;51.388;7.000;2023-06-24T06:01:32;22.10;99.90
2314;DHT22;42279;51.388;7.000;2023-06-24T06:03:58;22.50;99.90
2314;DHT22;42279;51.388;7.000;2023-06-24T06:06:25;22.90;99.90
2314;DHT22;42279;51.388;7.000;2023-06-24T06:08:52;23.50;99.90
2314;DHT22;42279;51.388;7.000;2023-06-24T06:11:17;24.00;99.90
2314;DHT22;42279;51.388;7.000;2023-06-24T06:13:43;24.60;99.90
2314;DHT22;42279;51.388;7.000;2023-06-24T06:16:11;25.10;99.90
2314;DHT22;42279;51.388;7.000;2023-06-24T06:18:40;25.50;99.90
2314;DHT22;42279;51.388;7.000;2023-06-24T06:21:05;25.90;99.90
2314;DHT22;42279;51.388;7.000;2023-06-24T06:23:37;25.50;99.90
2314;DHT22;42279;51.388;7.000;2023-06-24T06:26:09;25.20;99.90
2314;DHT22;42279;51.388;7.000;2023-06-24T06:28:38;24.90;99.90
2314;DHT22;42279;51.388;7.000;2023-06-24T06:31:06;24.70;99.90
2314;DHT22;42279;51.388;7.000;2023-06-24T06:33:51;24.80;99.90
2314;DHT22;42279;51.388;7.000;2023-06-24T06:36:17;25.30;99.90
2314;DHT22;42279;51.388;7.000;2023-06-24T06:39:06;25.20;99.90
2314;DHT22;42279;51.388;7.000;2023-06-24T06:44:33;26.30;99.90
2314;DHT22;42279;51.388;7.000;2023-06-24T06:47:05;26.40;99.90
2314;DHT22;42279;51.388;7.000;2023-06-24T06:49:51;26.40;99.90
2314;DHT22;42279;51.388;7.000;2023-06-24T06:52:25;26.60;99.90
2314;DHT22;42279;51.388;7.000;2023-06-24T06:54:59;27.10;99.90
2314;DHT22;42279;51.388;7.000;2023-06-24T06:57:29;27.30;99.90
2314;DHT22;42279;51.388;7.000;2023-06-24T07:00:13;27.20;99.90
2314;DHT22;42279;51.388;7.000;2023-06-24T07:02:39;26.90;99.90
2314;DHT22;42279;51.388;7.000;2023-06-24T07:05:09;27.50;99.70
2314;DHT22;42279;51.388;7.000;2023-06-24T07:07:41;27.70;98.00
2314;DHT22;42279;51.388;7.000;2023-06-24T07:10:12;27.80;97.30
2314;DHT22;42279;51.388;7.000;2023-06-24T07:12:41;27.50;98.60
2314;DHT22;42279;51.388;7.000;2023-06-24T07:15:07;28.20;97.40
2314;DHT22;42279;51.388;7.000;2023-06-24T07:17:35;28.30;96.10
2314;DHT22;42279;51.388;7.000;2023-06-24T07:20:01;28.40;95.40
2314;DHT22;42279;51.388;7.000;2023-06-24T07:22:55;28.30;94.80
2314;DHT22;42279;51.388;7.000;2023-06-24T07:25:30;28.50;95.10
2314;DHT22;42279;51.388;7.000;2023-06-24T07:28:10;28.90;93.90
2314;DHT22;42279;51.388;7.000;2023-06-24T07:30:51;29.40;92.50
2314;DHT22;42279;51.388;7.000;2023-06-24T07:33:56;28.90;91.60
2314;DHT22;42279;51.388;7.000;2023-06-24T07:36:25;29.10;91.90
2314;DHT22;42279;51.388;7.000;2023-06-24T07:39:20;29.70;90.40
2314;DHT22;42279;51.388;7.000;2023-06-24T07:41:53;30.00;87.10
2314;DHT22;42279;51.388;7.000;2023-06-24T07:44:28;30.00;86.80
2314;DHT22;42279;51.388;7.000;2023-06-24T07:47:02;30.50;85.50
2314;DHT22;42279;51.388;7.000;2023-06-24T07:49:52;30.80;82.00
2314;DHT22;42279;51.388;7.000;2023-06-24T07:52:18;31.30;79.20
2314;DHT22;42279;51.388;7.000;2023-06-24T07:55:15;31.50;75.10
2314;DHT22;42279;51.388;7.000;2023-06-24T07:57:46;31.40;73.50
2314;DHT22;42279;51.388;7.000;2023-06-24T08:00:33;31.10;74.40
2314;DHT22;42279;51.388;7.000;2023-06-24T08:03:49;31.10;73.00
2314;DHT22;42279;51.388;7.000;2023-06-24T08:12:11;33.10;64.20
2314;DHT22;42279;51.388;7.000;2023-06-24T08:14:45;33.60;60.40
2314;DHT22;42279;51.388;7.000;2023-06-24T08:17:17;33.30;59.50
2314;DHT22;42279;51.388;7.000;2023-06-24T08:22:43;34.00;58.70
2314;DHT22;42279;51.388;7.000;2023-06-24T08:25:24;34.30;58.00
2314;DHT22;42279;51.388;7.000;2023-06-24T08:28:08;34.90;56.60
2314;DHT22;42279;51.388;7.000;2023-06-24T08:30:45;35.40;55.40
2314;DHT22;42279;51.388;7.000;2023-06-24T08:33:25;35.60;54.20
2314;DHT22;42279;51.388;7.000;2023-06-24T08:36:08;35.10;53.70
2314;DHT22;42279;51.388;7.000;2023-06-24T08:38:34;34.70;53.30
2314;DHT22;42279;51.388;7.000;2023-06-24T08:44:26;35.10;52.00
2314;DHT22;42279;51.388;7.000;2023-06-24T08:47:01;34.60;52.70
2314;DHT22;42279;51.388;7.000;2023-06-24T08:49:41;35.20;52.30
2314;DHT22;42279;51.388;7.000;2023-06-24T08:52:25;35.30;51.10
2314;DHT22;42279;51.388;7.000;2023-06-24T08:55:06;35.70;51.50
2314;DHT22;42279;51.388;7.000;2023-06-24T08:57:36;35.10;51.20
2314;DHT22;42279;51.388;7.000;2023-06-24T09:00:14;34.80;49.40
2314;DHT22;42279;51.388;7.000;2023-06-24T09:02:42;34.90;49.50
2314;DHT22;42279;51.388;7.000;2023-06-24T09:05:16;35.00;49.30
2314;DHT22;42279;51.388;7.000;2023-06-24T09:07:48;35.60;48.40
2314;DHT22;42279;51.388;7.000;2023-06-24T09:10:33;35.80;47.50
2314;DHT22;42279;51.388;7.000;2023-06-24T09:13:06;36.30;47.50
2314;DHT22;42279;51.388;7.000;2023-06-24T09:15:34;36.70;46.60
2314;DHT22;42279;51.388;7.000;2023-06-24T09:18:18;36.30;46.60
2314;DHT22;42279;51.388;7.000;2023-06-24T09:20:49;36.50;47.00
2314;DHT22;42279;51.388;7.000;2023-06-24T09:27:16;36.80;46.70
2314;DHT22;42279;51.388;7.000;2023-06-24T09:33:35;36.90;44.40
2314;DHT22;42279;51.388;7.000;2023-06-24T09:36:21;35.80;44.40
2314;DHT22;42279;51.388;7.000;2023-06-24T09:38:47;35.50;44.10
2314;DHT22;42279;51.388;7.000;2023-06-24T09:41:14;35.60;44.70
2314;DHT22;42279;51.388;7.000;2023-06-24T09:43:42;36.10;44.30
2314;DHT22;42279;51.388;7.000;2023-06-24T09:46:21;35.80;43.90
2314;DHT22;42279;51.388;7.000;2023-06-24T09:48:46;36.20;43.00
2314;DHT22;42279;51.388;7.000;2023-06-24T09:51:14;36.10;43.30
2314;DHT22;42279;51.388;7.000;2023-06-24T09:53:40;36.70;42.60
2314;DHT22;42279;51.388;7.000;2023-06-24T09:56:08;35.90;42.80
2314;DHT22;42279;51.388;7.000;2023-06-24T09:58:36;36.80;42.40
2314;DHT22;42279;51.388;7.000;2023-06-24T10:01:07;37.00;42.00
2314;DHT22;42279;51.388;7.000;2023-06-24T10:03:56;37.40;41.70
2314;DHT22;42279;51.388;7.000;2023-06-24T10:06:33;38.20;41.10
2314;DHT22;42279;51.388;7.000;2023-06-24T10:09:04;37.90;40.50
2314;DHT22;42279;51.388;7.000;2023-06-24T10:11:30;38.00;39.90
2314;DHT22;42279;51.388;7.000;2023-06-24T10:13:56;37.40;40.80
2314;DHT22;42279;51.388;7.000;2023-06-24T10:16:22;36.90;43.40
2314;DHT22;42279;51.388;7.000;2023-06-24T10:19:08;37.00;47.40
2314;DHT22;42279;51.388;7.000;2023-06-24T10:26:51;37.20;45.80
2314;DHT22;42279;51.388;7.000;2023-06-24T10:29:16;38.10;40.60
2314;DHT22;42279;51.388;7.000;2023-06-24T10:31:55;39.00;40.30
2314;DHT22;42279;51.388;7.000;2023-06-24T10:34:45;38.60;39.30
2314;DHT22;42279;51.388;7.000;2023-06-24T10:37:32;38.60;38.90
2314;DHT22;42279;51.388;7.000;2023-06-24T10:40:14;38.40;38.70
2314;DHT22;42279;51.388;7.000;2023-06-24T10:43:38;37.70;38.50
2314;DHT22;42279;51.388;7.000;2023-06-24T10:46:14;37.80;37.80
2314;DHT22;42279;51.388;7.000;2023-06-24T10:48:41;38.20;38.40
2314;DHT22;42279;51.388;7.000;2023-06-24T10:51:06;38.60;38.60
2314;DHT22;42279;51.388;7.000;2023-06-24T10:53:33;38.40;38.30
2314;DHT22;42279;51.388;7.000;2023-06-24T10:55:58;39.00;38.30
2314;DHT22;42279;51.388;7.000;2023-06-24T10:58:24;39.60;37.70
2314;DHT22;42279;51.388;7.000;2023-06-24T11:00:50;39.80;37.50
2314;DHT22;42279;51.388;7.000;2023-06-24T11:03:17;39.90;37.80
2314;DHT22;42279;51.388;7.000;2023-06-24T11:05:45;39.80;37.20
2314;DHT22;42279;51.388;7.000;2023-06-24T11:08:11;39.80;37.60
2314;DHT22;42279;51.388;7.000;2023-06-24T11:10:49;40.00;37.00
2314;DHT22;42279;51.388;7.000;2023-06-24T11:13:15;40.20;37.30
2314;DHT22;42279;51.388;7.000;2023-06-24T11:15:44;39.80;37.70
2314;DHT22;42279;51.388;7.000;2023-06-24T11:18:10;39.80;37.90
2314;DHT22;42279;51.388;7.000;2023-06-24T11:20:37;40.30;37.90
2314;DHT22;42279;51.388;7.000;2023-06-24T11:23:08;40.70;36.20
2314;DHT22;42279;51.388;7.000;2023-06-24T11:25:39;40.10;36.50
2314;DHT22;42279;51.388;7.000;2023-06-24T11:30:45;39.70;36.60
2314;DHT22;42279;51.388;7.000;2023-06-24T11:33:11;39.40;37.30
2314;DHT22;42279;51.388;7.000;2023-06-24T11:35:37;39.20;37.60
2314;DHT22;42279;51.388;7.000;2023-06-24T11:38:03;38.70;37.70
2314;DHT22;42279;51.388;7.000;2023-06-24T11:40:31;38.70;37.80
2314;DHT22;42279;51.388;7.000;2023-06-24T11:43:00;39.10;37.90
2314;DHT22;42279;51.388;7.000;2023-06-24T11:45:26;39.20;38.20
2314;DHT22;42279;51.388;7.000;2023-06-24T11:47:51;39.10;37.10
2314;DHT22;42279;51.388;7.000;2023-06-24T11:50:18;39.20;37.80
2314;DHT22;42279;51.388;7.000;2023-06-24T11:52:50;39.20;37.80
2314;DHT22;42279;51.388;7.000;2023-06-24T11:55:19;38.80;38.20
2314;DHT22;42279;51.388;7.000;2023-06-24T12:00:35;39.20;37.60
2314;DHT22;42279;51.388;7.000;2023-06-24T12:03:07;39.70;37.00
2314;DHT22;42279;51.388;7.000;2023-06-24T12:05:34;39.70;36.60
2314;DHT22;42279;51.388;7.000;2023-06-24T12:08:07;40.30;36.20
2314;DHT22;42279;51.388;7.000;2023-06-24T12:10:35;40.00;36.10
2314;DHT22;42279;51.388;7.000;2023-06-24T12:13:03;40.50;36.70
2314;DHT22;42279;51.388;7.000;2023-06-24T12:15:37;40.50;35.60
2314;DHT22;42279;51.388;7.000;2023-06-24T12:18:08;39.90;35.60
2314;DHT22;42279;51.388;7.000;2023-06-24T12:20:35;40.00;35.60
2314;DHT22;42279;51.388;7.000;2023-06-24T12:23:02;40.20;35.50
2314;DHT22;42279;51.388;7.000;2023-06-24T12:25:29;40.10;35.20
2314;DHT22;42279;51.388;7.000;2023-06-24T12:27:54;40.40;35.20
2314;DHT22;42279;51.388;7.000;2023-06-24T12:30:20;40.30;35.40
2314;DHT22;42279;51.388;7.000;2023-06-24T12:32:51;40.60;35.00
2314;DHT22;42279;51.388;7.000;2023-06-24T12:35:18;40.50;34.20
2314;DHT22;42279;51.388;7.000;2023-06-24T12:37:47;40.20;34.10
2314;DHT22;42279;51.388;7.000;2023-06-24T12:40:15;40.20;34.50
2314;DHT22;42279;51.388;7.000;2023-06-24T12:42:40;40.20;34.60
2314;DHT22;42279;51.388;7.000;2023-06-24T12:45:08;39.10;33.40
2314;DHT22;42279;51.388;7.000;2023-06-24T12:47:34;38.90;34.10
2314;DHT22;42279;51.388;7.000;2023-06-24T12:50:25;39.40;33.40
2314;DHT22;42279;51.388;7.000;2023-06-24T12:53:22;39.70;33.70
2314;DHT22;42279;51.388;7.000;2023-06-24T12:55:48;39.30;32.90
2314;DHT22;42279;51.388;7.000;2023-06-24T12:58:19;39.40;33.80
2314;DHT22;42279;51.388;7.000;2023-06-24T13:00:45;39.80;33.80
2314;DHT22;42279;51.388;7.000;2023-06-24T13:03:10;40.20;34.40
2314;DHT22;42279;51.388;7.000;2023-06-24T13:05:36;40.40;33.80
2314;DHT22;42279;51.388;7.000;2023-06-24T13:08:03;40.20;33.40
2314;DHT22;42279;51.388;7.000;2023-06-24T13:10:31;40.30;33.20
2314;DHT22;42279;51.388;7.000;2023-06-24T13:12:58;40.50;32.40
2314;DHT22;42279;51.388;7.000;2023-06-24T13:15:24;40.80;32.40
2314;DHT22;42279;51.388;7.000;2023-06-24T13:17:51;40.50;33.20
2314;DHT22;42279;51.388;7.000;2023-06-24T13:20:20;39.80;33.70
2314;DHT22;42279;51.388;7.000;2023-06-24T13:22:47;39.10;33.00
2314;DHT22;42279;51.388;7.000;2023-06-24T13:25:14;38.90;34.10
2314;DHT22;42279;51.388;7.000;2023-06-24T13:27:41;39.10;34.10
2314;DHT22;42279;51.388;7.000;2023-06-24T13:30:07;39.10;34.70
2314;DHT22;42279;51.388;7.000;2023-06-24T13:32:36;39.40;34.00
2314;DHT22;42279;51.388;7.000;2023-06-24T13:35:04;39.40;33.70
2314;DHT22;42279;51.388;7.000;2023-06-24T13:37:30;39.70;33.50
2314;DHT22;42279;51.388;7.000;2023-06-24T13:39:56;39.90;33.20
2314;DHT22;42279;51.388;7.000;2023-06-24T13:42:21;39.70;32.40
2314;DHT22;42279;51.388;7.000;2023-06-24T13:44:48;39.90;32.70
2314;DHT22;42279;51.388;7.000;2023-06-24T13:47:13;40.20;32.90
2314;DHT22;42279;51.388;7.000;2023-06-24T13:49:39;39.80;33.20
2314;DHT22;42279;51.388;7.000;2023-06-24T13:52:04;39.80;33.40
2314;DHT22;42279;51.388;7.000;2023-06-24T13:54:30;39.40;33.30
2314;DHT22;42279;51.388;7.000;2023-06-24T13:56:58;39.20;32.90
2314;DHT22;42279;51.388;7.000;2023-06-24T13:59:24;39.00;32.70
2314;DHT22;42279;51.388;7.000;2023-06-24T14:01:49;39.30;32.30
2314;DHT22;42279;51.388;7.000;2023-06-24T14:04:15;39.10;32.50
2314;DHT22;42279;51.388;7.000;2023-06-24T14:06:41;39.20;33.00
2314;DHT22;42279;51.388;7.000;2023-06-24T14:09:08;39.60;32.90
2314;DHT22;42279;51.388;7.000;2023-06-24T14:11:34;39.80;32.70
2314;DHT22;42279;51.388;7.000;2023-06-24T14:13:59;39.60;33.20
2314;DHT22;42279;51.388;7.000;2023-06-24T14:16:25;39.40;33.00
2314;DHT22;42279;51.388;7.000;2023-06-24T14:18:51;39.50;33.20
2314;DHT22;42279;51.388;7.000;2023-06-24T14:21:16;39.70;32.90
2314;DHT22;42279;51.388;7.000;2023-06-24T14:23:42;39.10;32.30
2314;DHT22;42279;51.388;7.000;2023-06-24T14:26:08;38.70;32.80
2314;DHT22;42279;51.388;7.000;2023-06-24T14:28:33;38.80;33.70
2314;DHT22;42279;51.388;7.000;2023-06-24T14:30:59;38.80;33.20
2314;DHT22;42279;51.388;7.000;2023-06-24T14:33:25;38.70;32.20
2314;DHT22;42279;51.388;7.000;2023-06-24T14:35:50;38.50;32.60
2314;DHT22;42279;51.388;7.000;2023-06-24T14:38:16;38.50;32.80
2314;DHT22;42279;51.388;7.000;2023-06-24T14:40:42;38.30;32.10
2314;DHT22;42279;51.388;7.000;2023-06-24T14:43:08;38.30;32.80
2314;DHT22;42279;51.388;7.000;2023-06-24T14:45:33;38.60;33.00
2314;DHT22;42279;51.388;7.000;2023-06-24T14:47:59;38.50;32.60
2314;DHT22;42279;51.388;7.000;2023-06-24T14:50:24;38.30;33.00
2314;DHT22;42279;51.388;7.000;2023-06-24T14:52:50;37.90;32.70
2314;DHT22;42279;51.388;7.000;2023-06-24T14:55:16;37.00;32.80
2314;DHT22;42279;51.388;7.000;2023-06-24T14:57:41;35.80;33.60
2314;DHT22;42279;51.388;7.000;2023-06-24T15:00:07;34.60;33.50
2314;DHT22;42279;51.388;7.000;2023-06-24T15:02:34;33.20;34.00
2314;DHT22;42279;51.388;7.000;2023-06-24T15:05:03;32.60;34.60
2314;DHT22;42279;51.388;7.000;2023-06-24T15:07:35;32.20;35.00
2314;DHT22;42279;51.388;7.000;2023-06-24T15:10:12;31.90;35.30
2314;DHT22;42279;51.388;7.000;2023-06-24T15:12:38;31.50;35.30
2314;DHT22;42279;51.388;7.000;2023-06-24T15:15:05;31.40;34.60
2314;DHT22;42279;51.388;7.000;2023-06-24T15:17:34;31.20;35.40
2314;DHT22;42279;51.388;7.000;2023-06-24T15:20:16;31.00;35.50
2314;DHT22;42279;51.388;7.000;2023-06-24T15:22:41;31.00;36.00
2314;DHT22;42279;51.388;7.000;2023-06-24T15:25:13;31.00;35.70
2314;DHT22;42279;51.388;7.000;2023-06-24T15:27:45;30.80;35.60
2314;DHT22;42279;51.388;7.000;2023-06-24T15:30:10;30.90;36.00
2314;DHT22;42279;51.388;7.000;2023-06-24T15:32:36;30.90;35.80
2314;DHT22;42279;51.388;7.000;2023-06-24T15:35:03;30.80;35.10
2314;DHT22;42279;51.388;7.000;2023-06-24T15:37:47;30.70;35.80
2314;DHT22;42279;51.388;7.000;2023-06-24T15:40:12;30.70;36.30
2314;DHT22;42279;51.388;7.000;2023-06-24T15:42:38;30.80;36.30
2314;DHT22;42279;51.388;7.000;2023-06-24T15:45:10;30.70;35.80
2314;DHT22;42279;51.388;7.000;2023-06-24T15:47:44;30.60;35.80
2314;DHT22;42279;51.388;7.000;2023-06-24T15:50:10;30.70;35.70
2314;DHT22;42279;51.388;7.000;2023-06-24T15:52:35;30.60;35.70
2314;DHT22;42279;51.388;7.000;2023-06-24T15:55:08;30.60;36.30
2314;DHT22;42279;51.388;7.000;2023-06-24T15:57:48;30.50;35.80
2314;DHT22;42279;51.388;7.000;2023-06-24T16:00:15;30.40;35.20
2314;DHT22;42279;51.388;7.000;2023-06-24T16:02:41;30.30;35.80
2314;DHT22;42279;51.388;7.000;2023-06-24T16:05:06;30.10;36.20
2314;DHT22;42279;51.388;7.000;2023-06-24T16:07:33;30.20;35.90
2314;DHT22;42279;51.388;7.000;2023-06-24T16:10:00;30.20;35.60
2314;DHT22;42279;51.388;7.000;2023-06-24T16:12:26;30.30;35.40
2314;DHT22;42279;51.388;7.000;2023-06-24T16:14:52;30.30;35.70
2314;DHT22;42279;51.388;7.000;2023-06-24T16:17:18;30.40;35.60
2314;DHT22;42279;51.388;7.000;2023-06-24T16:19:44;30.30;35.60
2314;DHT22;42279;51.388;7.000;2023-06-24T16:22:10;30.30;35.70
2314;DHT22;42279;51.388;7.000;2023-06-24T16:24:36;30.30;35.50
2314;DHT22;42279;51.388;7.000;2023-06-24T16:27:01;30.30;35.90
2314;DHT22;42279;51.388;7.000;2023-06-24T16:29:27;30.10;35.90
2314;DHT22;42279;51.388;7.000;2023-06-24T16:31:53;30.00;35.30
2314;DHT22;42279;51.388;7.000;2023-06-24T16:34:19;30.00;35.80
2314;DHT22;42279;51.388;7.000;2023-06-24T16:36:44;30.10;37.00
2314;DHT22;42279;51.388;7.000;2023-06-24T16:39:10;30.10;35.80
2314;DHT22;42279;51.388;7.000;2023-06-24T16:41:35;30.10;35.60
2314;DHT22;42279;51.388;7.000;2023-06-24T16:44:01;30.20;35.20
2314;DHT22;42279;51.388;7.000;2023-06-24T16:46:27;30.00;35.20
2314;DHT22;42279;51.388;7.000;2023-06-24T16:48:55;30.10;35.70